Nelma, Wisconsin
Current Conditions -  °F | °C
As of 8:35 PM on Wednesday 22 Oct 2014 (Local Time) from KEGV Reporting Station
Clear Clear  
Wind Chill: 38°   Ceiling: Unl
Heat Index: 42°   Visibility: 10mi
Dew Point: 29°   Wind: 6mph
Humidity: 61%   Direction: 160°SSE
Pressure: 30.17"   Gusts: NA
Location:  45.9186°N, 88.7601°W
Report Text: KEGV 230135Z AUTO 16005KT 10SM CLR 06/M01 A3017 RMK AO2 T00551015
Loading
Personal Weather Stations






























Interactive Weather Map
Tropical Storm Tracking
New forecast layout! Learn more

10-Day Weather Forecast

Advertisements
Track Severe Weather on mobile